Time;durP1;ratioP1;P1;durP2;ratioP2;P2;SDS_P1;SDS_P2;PMS_P1;PMS_P2;Temp;Humidity;BMP_temperature;BMP_pressure;BME280_temperature;BME280_humidity;BME280_pressure;Samples;Min_cycle;Max_cycle;Signal;HPM_P1;HPM_P2
2022/09/29 00:01:32;;;;;;;9.40;5.55;;;;;;;;;;5049249;28;20128;-78
2022/09/29 00:03:59;;;;;;;9.10;5.30;;;;;;;;;;5033364;28;20053;-79
2022/09/29 00:06:25;;;;;;;9.23;5.65;;;;;;;;;;5034268;28;20081;-80
2022/09/29 00:08:52;;;;;;;9.57;4.93;;;;;;;;;;5032795;28;20045;-78
2022/09/29 00:11:18;;;;;;;10.02;5.25;;;;;;;;;;5031890;28;20053;-80
2022/09/29 00:13:45;;;;;;;9.52;5.15;;;;;;;;;;5031357;28;20506;-78
2022/09/29 00:16:12;;;;;;;12.88;5.60;;;;;;;;;;5032182;28;20052;-79
2022/09/29 00:18:38;;;;;;;10.32;5.72;;;;;;;;;;5031958;28;20687;-80
2022/09/29 00:21:08;;;;;;;10.73;5.53;;;;;;;;;;5032535;28;20111;-80
2022/09/29 00:23:34;;;;;;;8.38;4.78;;;;;;;;;;5037051;28;20060;-80
2022/09/29 00:26:11;;;;;;;14.35;5.63;;;;;;;;;;5037039;28;20497;-80
2022/09/29 00:28:39;;;;;;;11.40;6.15;;;;;;;;;;5037233;28;20049;-80
2022/09/29 00:31:06;;;;;;;11.07;6.03;;;;;;;;;;5035978;28;20060;-80
2022/09/29 00:33:34;;;;;;;10.13;5.53;;;;;;;;;;5036398;28;20057;-80
2022/09/29 00:36:04;;;;;;;17.30;6.55;;;;;;;;;;5037199;28;20046;-80
2022/09/29 00:38:31;;;;;;;12.35;6.07;;;;;;;;;;5057084;28;20338;-81
2022/09/29 00:40:57;;;;;;;11.93;7.07;;;;;;;;;;5058537;28;20110;-80
2022/09/29 00:43:44;;;;;;;17.30;7.20;;;;;;;;;;5041678;28;20039;-80
2022/09/29 00:46:12;;;;;;;13.57;7.40;;;;;;;;;;5052186;28;20130;-79
2022/09/29 00:48:38;;;;;;;16.85;6.97;;;;;;;;;;5037334;28;20057;-80
2022/09/29 00:51:05;;;;;;;16.35;7.90;;;;;;;;;;5036894;28;20046;-80
2022/09/29 00:53:31;;;;;;;12.32;7.00;;;;;;;;;;5036490;28;20049;-81
2022/09/29 00:56:02;;;;;;;12.57;7.32;;;;;;;;;;5037182;28;20058;-81
2022/09/29 00:58:36;;;;;;;11.88;6.78;;;;;;;;;;5046290;28;20506;-80
2022/09/29 01:01:03;;;;;;;11.50;6.70;;;;;;;;;;5056627;28;20045;-80
2022/09/29 01:03:31;;;;;;;13.88;7.50;;;;;;;;;;5060632;28;20497;-80
2022/09/29 01:06:18;;;;;;;17.27;7.60;;;;;;;;;;5038213;28;20045;-79
2022/09/29 01:09:05;;;;;;;12.02;7.03;;;;;;;;;;5055037;28;20052;-79
2022/09/29 01:11:31;;;;;;;15.38;7.88;;;;;;;;;;5055476;28;20057;-80
2022/09/29 01:14:02;;;;;;;15.32;8.02;;;;;;;;;;5055562;28;20063;-81
2022/09/29 01:16:29;;;;;;;14.07;7.35;;;;;;;;;;5055991;28;20053;-81
2022/09/29 01:18:58;;;;;;;13.15;7.18;;;;;;;;;;5054718;28;20048;-79
2022/09/29 01:21:27;;;;;;;14.45;7.55;;;;;;;;;;5055938;28;20049;-80
2022/09/29 01:24:01;;;;;;;15.57;7.80;;;;;;;;;;5055717;28;20532;-81
2022/09/29 01:26:51;;;;;;;15.20;7.38;;;;;;;;;;5055888;28;20487;-79
2022/09/29 01:29:24;;;;;;;17.02;7.47;;;;;;;;;;5006630;28;20053;-79
2022/09/29 01:31:57;;;;;;;14.23;7.63;;;;;;;;;;5055718;28;20061;-81
2022/09/29 01:34:23;;;;;;;13.52;7.00;;;;;;;;;;5057286;28;20045;-82
2022/09/29 01:37:03;;;;;;;13.38;6.97;;;;;;;;;;5055874;28;20045;-80
2022/09/29 01:39:33;;;;;;;13.27;7.05;;;;;;;;;;5055316;28;20045;-80
2022/09/29 01:42:09;;;;;;;13.80;7.53;;;;;;;;;;5039548;28;20041;-79
2022/09/29 01:44:35;;;;;;;;;;;;;;;;;;5047559;28;20057;-81
2022/09/29 01:47:08;;;;;;;14.82;7.32;;;;;;;;;;5021793;28;19943;-79
2022/09/29 01:49:38;;;;;;;12.85;7.05;;;;;;;;;;5022037;28;20046;-81
2022/09/29 01:52:07;;;;;;;12.63;6.88;;;;;;;;;;5019576;28;20148;-81
2022/09/29 01:54:53;;;;;;;13.18;7.22;;;;;;;;;;5024138;28;20056;-80
2022/09/29 01:57:23;;;;;;;11.98;7.07;;;;;;;;;;5018184;28;20053;-82
2022/09/29 01:59:52;;;;;;;13.70;7.18;;;;;;;;;;5057565;28;20052;-81
2022/09/29 02:02:22;;;;;;;12.80;7.03;;;;;;;;;;5038164;28;20054;-81
2022/09/29 02:04:53;;;;;;;15.93;7.63;;;;;;;;;;5011433;28;20594;-81
2022/09/29 02:07:25;;;;;;;14.23;7.78;;;;;;;;;;5016900;28;20058;-79
2022/09/29 02:09:55;;;;;;;13.02;7.20;;;;;;;;;;5016909;28;20049;-81
2022/09/29 02:12:25;;;;;;;17.90;7.15;;;;;;;;;;4998869;28;20058;-80
2022/09/29 02:14:52;;;;;;;16.02;6.97;;;;;;;;;;5016801;28;20045;-80
2022/09/29 02:17:21;;;;;;;13.27;7.20;;;;;;;;;;5017103;28;20144;-80
2022/09/29 02:19:49;;;;;;;15.43;6.22;;;;;;;;;;5030743;28;20114;-81
2022/09/29 02:22:16;;;;;;;11.07;6.20;;;;;;;;;;5032119;28;20077;-80
2022/09/29 02:24:43;;;;;;;14.90;7.20;;;;;;;;;;5013757;28;20064;-81
2022/09/29 02:27:10;;;;;;;14.43;7.53;;;;;;;;;;5024549;28;20133;-81
2022/09/29 02:29:37;;;;;;;12.43;6.90;;;;;;;;;;5023895;28;20129;-79
2022/09/29 02:32:09;;;;;;;15.80;7.22;;;;;;;;;;5022506;28;20059;-81
2022/09/29 02:34:40;;;;;;;16.35;7.18;;;;;;;;;;5022441;28;20076;-80
2022/09/29 02:37:12;;;;;;;12.02;6.50;;;;;;;;;;5009462;28;20129;-80
2022/09/29 02:39:57;;;;;;;14.70;7.13;;;;;;;;;;5021982;28;20061;-80
2022/09/29 02:42:27;;;;;;;12.35;7.22;;;;;;;;;;5027324;28;20057;-81
2022/09/29 02:45:03;;;;;;;13.43;6.93;;;;;;;;;;5021949;28;20149;-81
2022/09/29 02:47:38;;;;;;;12.65;6.80;;;;;;;;;;5021092;28;20057;-80
2022/09/29 02:50:27;;;;;;;13.38;7.15;;;;;;;;;;5016207;28;20523;-81
2022/09/29 02:52:54;;;;;;;13.32;7.28;;;;;;;;;;5014853;28;20053;-80
2022/09/29 02:55:20;;;;;;;12.05;7.03;;;;;;;;;;5014752;28;20132;-81
2022/09/29 02:57:51;;;;;;;12.90;7.13;;;;;;;;;;5022139;28;20072;-81
2022/09/29 03:00:18;;;;;;;13.80;6.95;;;;;;;;;;5053749;28;20044;-81
2022/09/29 03:02:45;;;;;;;15.25;7.10;;;;;;;;;;5053531;28;20044;-80
2022/09/29 03:05:13;;;;;;;12.00;6.90;;;;;;;;;;5054243;28;20515;-79
2022/09/29 03:07:40;;;;;;;14.18;6.18;;;;;;;;;;5053130;28;20053;-81
2022/09/29 03:10:06;;;;;;;12.23;6.45;;;;;;;;;;5054160;28;20049;-81
2022/09/29 03:12:33;;;;;;;12.80;6.80;;;;;;;;;;5054555;28;20049;-81
2022/09/29 03:15:00;;;;;;;12.80;7.18;;;;;;;;;;5054571;28;20053;-81
2022/09/29 03:17:26;;;;;;;12.50;7.25;;;;;;;;;;5054878;28;20158;-81
2022/09/29 03:19:52;;;;;;;13.10;7.18;;;;;;;;;;5052297;28;20136;-81
2022/09/29 03:22:19;;;;;;;14.63;7.47;;;;;;;;;;5076526;28;20044;-80
2022/09/29 03:24:45;;;;;;;12.98;7.18;;;;;;;;;;5066409;28;20059;-80
2022/09/29 03:27:11;;;;;;;16.60;7.68;;;;;;;;;;5038267;28;20052;-80
2022/09/29 03:29:38;;;;;;;12.90;7.30;;;;;;;;;;5052750;28;20049;-80
2022/09/29 03:32:04;;;;;;;15.73;8.23;;;;;;;;;;5019001;28;20053;-80
2022/09/29 03:34:31;;;;;;;14.25;7.57;;;;;;;;;;5015121;28;20084;-81
2022/09/29 03:36:58;;;;;;;15.13;7.25;;;;;;;;;;5026454;28;20049;-80
2022/09/29 03:39:24;;;;;;;13.50;7.30;;;;;;;;;;5033712;28;20457;-81
2022/09/29 03:41:50;;;;;;;12.75;6.82;;;;;;;;;;5032339;28;20052;-82
2022/09/29 03:44:17;;;;;;;15.05;7.97;;;;;;;;;;5033341;28;20048;-82
2022/09/29 03:46:45;;;;;;;15.90;7.53;;;;;;;;;;5023222;28;20696;-80
2022/09/29 03:49:12;;;;;;;15.25;7.28;;;;;;;;;;5030378;28;20655;-80
2022/09/29 03:51:38;;;;;;;13.52;7.07;;;;;;;;;;5012421;28;20081;-79
2022/09/29 03:54:04;;;;;;;13.65;7.18;;;;;;;;;;5017528;28;20048;-80
2022/09/29 03:56:31;;;;;;;16.20;7.63;;;;;;;;;;5022708;28;20053;-79
2022/09/29 03:58:57;;;;;;;22.15;7.55;;;;;;;;;;5025185;28;20533;-79
2022/09/29 04:01:24;;;;;;;14.15;8.02;;;;;;;;;;5029095;28;20417;-79
2022/09/29 04:03:50;;;;;;;12.80;7.22;;;;;;;;;;5004621;28;20050;-80
2022/09/29 04:06:17;;;;;;;13.75;7.00;;;;;;;;;;5012543;28;20587;-80
2022/09/29 04:08:43;;;;;;;15.02;6.82;;;;;;;;;;5024376;28;20042;-81
2022/09/29 04:11:09;;;;;;;16.85;7.07;;;;;;;;;;5033500;28;20064;-81
2022/09/29 04:13:36;;;;;;;16.67;7.53;;;;;;;;;;5032317;28;20050;-81
2022/09/29 04:16:04;;;;;;;18.45;7.30;;;;;;;;;;5014951;28;20052;-80
2022/09/29 04:18:31;;;;;;;15.30;7.75;;;;;;;;;;5032887;28;20154;-81
2022/09/29 04:20:59;;;;;;;13.32;6.70;;;;;;;;;;5032872;28;20136;-81
2022/09/29 04:23:28;;;;;;;11.95;6.10;;;;;;;;;;5033135;28;20045;-81
2022/09/29 04:25:55;;;;;;;15.60;6.55;;;;;;;;;;5018367;28;20050;-80
2022/09/29 04:28:22;;;;;;;11.43;6.32;;;;;;;;;;5039452;28;20049;-81
2022/09/29 04:30:48;;;;;;;15.43;6.97;;;;;;;;;;5044133;28;20049;-80
2022/09/29 04:33:15;;;;;;;14.23;6.90;;;;;;;;;;5042353;28;20073;-81
2022/09/29 04:35:41;;;;;;;15.80;7.05;;;;;;;;;;5039132;28;20052;-80
2022/09/29 04:38:08;;;;;;;16.40;7.88;;;;;;;;;;5014665;28;20544;-80
2022/09/29 04:40:35;;;;;;;14.90;7.40;;;;;;;;;;5014672;28;20060;-80
2022/09/29 04:43:02;;;;;;;16.58;7.30;;;;;;;;;;5032437;28;20155;-81
2022/09/29 04:45:29;;;;;;;14.13;7.22;;;;;;;;;;5032986;28;20420;-81
2022/09/29 04:47:56;;;;;;;17.75;7.72;;;;;;;;;;5014188;28;20053;-81
2022/09/29 04:50:23;;;;;;;16.30;7.47;;;;;;;;;;5032746;28;20046;-81
2022/09/29 04:52:49;;;;;;;18.80;7.75;;;;;;;;;;5031359;28;20064;-80
2022/09/29 04:55:16;;;;;;;15.60;7.80;;;;;;;;;;5026313;28;20545;-80
2022/09/29 04:57:43;;;;;;;15.90;7.28;;;;;;;;;;5011486;28;20066;-81
2022/09/29 05:00:10;;;;;;;12.85;7.03;;;;;;;;;;5012274;28;20046;-79
2022/09/29 05:02:39;;;;;;;18.52;7.38;;;;;;;;;;5013222;28;20086;-81
2022/09/29 05:05:06;;;;;;;19.58;8.00;;;;;;;;;;5030265;28;20114;-81
2022/09/29 05:07:36;;;;;;;14.38;7.53;;;;;;;;;;5014082;28;20049;-80
2022/09/29 05:10:03;;;;;;;13.23;7.55;;;;;;;;;;5035738;28;20045;-80
2022/09/29 05:12:29;;;;;;;15.52;7.50;;;;;;;;;;5034588;28;20494;-80
2022/09/29 05:14:56;;;;;;;17.02;7.22;;;;;;;;;;5034944;28;20069;-82
2022/09/29 05:17:22;;;;;;;15.27;7.15;;;;;;;;;;5039829;28;20076;-82
2022/09/29 05:19:48;;;;;;;17.00;8.70;;;;;;;;;;5035957;28;20063;-80
2022/09/29 05:22:15;;;;;;;14.57;8.13;;;;;;;;;;5034613;28;20425;-80
2022/09/29 05:24:41;;;;;;;18.20;8.55;;;;;;;;;;5035539;28;20056;-81
2022/09/29 05:27:07;;;;;;;18.17;8.68;;;;;;;;;;5036935;28;20049;-80
2022/09/29 05:29:33;;;;;;;14.50;7.85;;;;;;;;;;5038340;28;20051;-81
2022/09/29 05:32:00;;;;;;;17.85;8.80;;;;;;;;;;5034589;28;20054;-81
2022/09/29 05:34:26;;;;;;;16.10;8.18;;;;;;;;;;5034712;28;20525;-81
2022/09/29 05:36:53;;;;;;;16.90;8.82;;;;;;;;;;5016933;28;20057;-80
2022/09/29 05:39:19;;;;;;;20.13;8.80;;;;;;;;;;5036299;28;20045;-80
2022/09/29 05:41:46;;;;;;;18.73;9.48;;;;;;;;;;5017822;28;20049;-80
2022/09/29 05:44:13;;;;;;;24.17;10.52;;;;;;;;;;5038203;28;20076;-81
2022/09/29 05:46:40;;;;;;;21.77;10.15;;;;;;;;;;5034860;28;20089;-81
2022/09/29 05:49:06;;;;;;;19.35;9.70;;;;;;;;;;5016375;28;20446;-80
2022/09/29 05:51:32;;;;;;;20.30;9.70;;;;;;;;;;5034358;28;20662;-80
2022/09/29 05:54:00;;;;;;;18.73;10.13;;;;;;;;;;5034218;28;20084;-80
2022/09/29 05:56:27;;;;;;;19.08;9.57;;;;;;;;;;5034200;28;20049;-80
2022/09/29 05:58:54;;;;;;;20.05;9.45;;;;;;;;;;5046540;28;20532;-80
2022/09/29 06:01:21;;;;;;;16.75;9.02;;;;;;;;;;5054020;28;20053;-80
2022/09/29 06:03:50;;;;;;;20.08;9.45;;;;;;;;;;5053122;28;20415;-81
2022/09/29 06:06:24;;;;;;;21.40;10.20;;;;;;;;;;5064150;28;20059;-80
2022/09/29 06:08:51;;;;;;;18.10;9.65;;;;;;;;;;5074496;28;20041;-80
2022/09/29 06:11:19;;;;;;;18.17;8.73;;;;;;;;;;5075043;28;20043;-78
2022/09/29 06:13:46;;;;;;;18.83;8.50;;;;;;;;;;5073994;28;20375;-80
2022/09/29 06:16:14;;;;;;;17.08;8.68;;;;;;;;;;5062575;28;20408;-80
2022/09/29 06:18:40;;;;;;;20.30;8.27;;;;;;;;;;5052476;28;20592;-79
2022/09/29 06:21:10;;;;;;;13.48;7.85;;;;;;;;;;5053595;28;20563;-80
2022/09/29 06:23:37;;;;;;;16.65;8.98;;;;;;;;;;5054668;28;20052;-81
2022/09/29 06:26:05;;;;;;;17.83;9.15;;;;;;;;;;5054549;28;20063;-81
2022/09/29 06:28:32;;;;;;;17.05;8.88;;;;;;;;;;5051855;28;20048;-81
2022/09/29 06:31:03;;;;;;;19.02;9.45;;;;;;;;;;5036740;28;20049;-81
2022/09/29 06:33:30;;;;;;;15.27;8.90;;;;;;;;;;5053360;28;20053;-81
2022/09/29 06:38:42;;;;;;;21.08;9.55;;;;;;;;;;5053725;28;20063;-81
2022/09/29 06:41:09;;;;;;;30.40;15.85;;;;;;;;;;5042277;28;20056;-80
2022/09/29 06:43:35;;;;;;;51.95;26.33;;;;;;;;;;5073757;28;20059;-80
2022/09/29 06:46:02;;;;;;;52.78;26.08;;;;;;;;;;5075057;28;20047;-80
2022/09/29 06:48:29;;;;;;;29.40;14.23;;;;;;;;;;5033256;28;20108;-79
2022/09/29 06:50:55;;;;;;;19.42;9.43;;;;;;;;;;5052879;28;20060;-79
2022/09/29 06:53:35;;;;;;;14.40;7.88;;;;;;;;;;5052483;28;20053;-80
2022/09/29 06:56:04;;;;;;;12.80;7.88;;;;;;;;;;5052862;28;20076;-80
2022/09/29 06:58:30;;;;;;;13.52;6.88;;;;;;;;;;5041397;28;20108;-80
2022/09/29 07:01:00;;;;;;;12.95;7.22;;;;;;;;;;5032845;28;20045;-80
2022/09/29 07:03:27;;;;;;;13.23;7.65;;;;;;;;;;5013390;28;20049;-81
2022/09/29 07:05:53;;;;;;;18.05;7.85;;;;;;;;;;5013489;28;20050;-80
2022/09/29 07:08:40;;;;;;;14.75;8.02;;;;;;;;;;5030682;28;20535;-79
2022/09/29 07:11:07;;;;;;;13.65;7.88;;;;;;;;;;5031160;28;20057;-81
2022/09/29 07:13:34;;;;;;;14.40;7.90;;;;;;;;;;5029166;28;20049;-79
2022/09/29 07:16:05;;;;;;;18.05;7.68;;;;;;;;;;5031136;28;20057;-80
2022/09/29 07:18:34;;;;;;;11.25;6.45;;;;;;;;;;5028178;28;20053;-80
2022/09/29 07:21:00;;;;;;;8.73;5.45;;;;;;;;;;5031085;28;20136;-80
2022/09/29 07:23:27;;;;;;;8.63;5.45;;;;;;;;;;5030141;28;20405;-79
2022/09/29 07:25:53;;;;;;;10.27;5.40;;;;;;;;;;5032185;28;20045;-80
2022/09/29 07:28:20;;;;;;;11.43;5.18;;;;;;;;;;5028024;28;20533;-81
2022/09/29 07:30:46;;;;;;;7.43;4.63;;;;;;;;;;5030523;28;20046;-80
2022/09/29 07:33:15;;;;;;;8.20;5.03;;;;;;;;;;5029582;28;20060;-81
2022/09/29 07:35:42;;;;;;;11.85;7.75;;;;;;;;;;5032496;28;20461;-80
2022/09/29 07:38:09;;;;;;;15.30;9.75;;;;;;;;;;5030921;28;20053;-81
2022/09/29 07:40:36;;;;;;;16.33;8.48;;;;;;;;;;5013518;28;20041;-81
2022/09/29 07:43:03;;;;;;;11.15;5.18;;;;;;;;;;5030076;28;20060;-81
2022/09/29 07:45:29;;;;;;;7.10;3.95;;;;;;;;;;5029935;28;20056;-81
2022/09/29 07:47:56;;;;;;;9.43;3.50;;;;;;;;;;5027990;28;20049;-82
2022/09/29 07:50:22;;;;;;;5.95;2.88;;;;;;;;;;5029872;28;20045;-80
2022/09/29 07:52:49;;;;;;;4.72;2.28;;;;;;;;;;5029090;28;20046;-81
2022/09/29 07:55:15;;;;;;;3.83;2.05;;;;;;;;;;5029580;28;20422;-80
2022/09/29 07:57:42;;;;;;;3.45;1.80;;;;;;;;;;5031253;28;20041;-81
2022/09/29 08:00:08;;;;;;;3.75;1.80;;;;;;;;;;5048676;28;20049;-80
2022/09/29 08:02:35;;;;;;;3.70;1.80;;;;;;;;;;5051700;28;20040;-81
2022/09/29 08:05:02;;;;;;;3.85;1.92;;;;;;;;;;5041499;28;20079;-81
2022/09/29 08:07:33;;;;;;;3.15;1.98;;;;;;;;;;5057454;28;20048;-81
2022/09/29 08:09:59;;;;;;;2.30;1.48;;;;;;;;;;5053123;28;20052;-81
2022/09/29 08:12:40;;;;;;;4.07;2.15;;;;;;;;;;5051114;28;20137;-82
2022/09/29 08:15:09;;;;;;;3.45;1.58;;;;;;;;;;5054930;28;20052;-82
2022/09/29 08:17:36;;;;;;;3.28;1.70;;;;;;;;;;5053924;28;20053;-82
2022/09/29 08:20:02;;;;;;;5.97;1.95;;;;;;;;;;5051839;28;20079;-81
2022/09/29 08:22:28;;;;;;;3.10;1.50;;;;;;;;;;5034924;28;20044;-81
2022/09/29 08:24:55;;;;;;;5.07;1.67;;;;;;;;;;5053865;28;20045;-81
2022/09/29 08:27:21;;;;;;;3.95;1.70;;;;;;;;;;5051684;28;20387;-81
2022/09/29 08:29:48;;;;;;;3.72;1.70;;;;;;;;;;5052668;28;20060;-81
2022/09/29 08:32:14;;;;;;;2.72;1.75;;;;;;;;;;5049632;28;20060;-81
2022/09/29 08:34:41;;;;;;;4.13;1.70;;;;;;;;;;5049696;28;20295;-79
2022/09/29 08:37:08;;;;;;;4.65;1.75;;;;;;;;;;5049938;28;20045;-81
2022/09/29 08:39:34;;;;;;;2.65;1.65;;;;;;;;;;5050576;28;20049;-80
2022/09/29 08:42:16;;;;;;;2.53;1.73;;;;;;;;;;5050120;28;20049;-80
2022/09/29 08:44:57;;;;;;;4.70;1.80;;;;;;;;;;5054661;28;20059;-80
2022/09/29 08:47:38;;;;;;;;;;;;;;;;;;5054605;28;20045;-79
2022/09/29 08:50:12;;;;;;;5.50;1.60;;;;;;;;;;5053864;28;20011;-80
2022/09/29 08:52:43;;;;;;;3.72;1.55;;;;;;;;;;5054432;28;20068;-80
2022/09/29 08:55:17;;;;;;;4.45;1.80;;;;;;;;;;5055622;28;20509;-79
2022/09/29 08:57:49;;;;;;;4.57;2.10;;;;;;;;;;5051148;28;20484;-80
2022/09/29 09:00:17;;;;;;;5.28;1.52;;;;;;;;;;5034694;28;20049;-80
2022/09/29 09:02:43;;;;;;;6.32;1.85;;;;;;;;;;5033849;28;20053;-80
2022/09/29 09:05:25;;;;;;;5.00;1.75;;;;;;;;;;5015973;28;20079;-80
2022/09/29 09:07:57;;;;;;;5.68;1.75;;;;;;;;;;5033199;28;20065;-81
2022/09/29 09:10:35;;;;;;;5.63;1.92;;;;;;;;;;5035149;28;20068;-82
2022/09/29 09:13:20;;;;;;;4.82;2.08;;;;;;;;;;5033986;28;20482;-82
2022/09/29 09:15:53;;;;;;;6.43;1.92;;;;;;;;;;5017387;28;20060;-82
2022/09/29 09:18:25;;;;;;;10.13;2.03;;;;;;;;;;5034178;28;20059;-82
2022/09/29 09:20:59;;;;;;;3.65;1.80;;;;;;;;;;5034169;28;20390;-82
2022/09/29 09:23:37;;;;;;;3.85;1.70;;;;;;;;;;5033559;28;20061;-82
2022/09/29 09:26:03;;;;;;;5.55;2.17;;;;;;;;;;5034961;28;20393;-82
2022/09/29 09:28:56;;;;;;;4.53;1.67;;;;;;;;;;5032280;28;20049;-80
2022/09/29 09:31:25;;;;;;;7.43;1.60;;;;;;;;;;5029874;28;20050;-81
2022/09/29 09:34:01;;;;;;;4.13;1.48;;;;;;;;;;5038586;28;20053;-80
2022/09/29 09:36:40;;;;;;;2.97;1.50;;;;;;;;;;5016112;28;20061;-79
2022/09/29 09:49:30;;;;;;;4.72;1.70;;;;;;;;;;4930044;29;20437;-81
2022/09/29 09:52:10;;;;;;;6.50;1.75;;;;;;;;;;4971764;28;20131;-82
2022/09/29 09:54:46;;;;;;;4.75;1.70;;;;;;;;;;4971732;28;20471;-82
2022/09/29 09:57:23;;;;;;;5.97;1.80;;;;;;;;;;4971635;28;20074;-82
2022/09/29 09:59:59;;;;;;;3.70;1.95;;;;;;;;;;4981911;28;20120;-83
2022/09/29 10:02:25;;;;;;;4.85;1.60;;;;;;;;;;5021988;28;20081;-80
2022/09/29 10:04:53;;;;;;;3.28;1.65;;;;;;;;;;5034325;28;20061;-80
2022/09/29 10:07:21;;;;;;;8.13;1.80;;;;;;;;;;5030355;28;20047;-80
2022/09/29 10:09:47;;;;;;;5.93;1.70;;;;;;;;;;5014394;28;20119;-79
2022/09/29 10:12:15;;;;;;;3.42;1.50;;;;;;;;;;5014080;28;20089;-80
2022/09/29 10:15:08;;;;;;;5.30;1.42;;;;;;;;;;4997667;28;20248;-79
2022/09/29 10:17:41;;;;;;;5.82;1.50;;;;;;;;;;5008415;28;20421;-80
2022/09/29 10:20:08;;;;;;;3.90;1.60;;;;;;;;;;5013714;28;20057;-79
2022/09/29 10:22:35;;;;;;;9.07;1.90;;;;;;;;;;5014440;28;20046;-80
2022/09/29 10:25:07;;;;;;;4.03;1.67;;;;;;;;;;5014834;28;20081;-81
2022/09/29 10:27:34;;;;;;;5.63;1.73;;;;;;;;;;4996603;28;20076;-80
2022/09/29 10:30:02;;;;;;;4.63;1.75;;;;;;;;;;5013574;28;20129;-80
2022/09/29 10:32:35;;;;;;;4.05;2.03;;;;;;;;;;4995093;28;20062;-80
2022/09/29 10:35:28;;;;;;;3.95;1.90;;;;;;;;;;5012635;28;20189;-81
2022/09/29 10:38:04;;;;;;;3.65;1.90;;;;;;;;;;5011022;28;20085;-81
2022/09/29 10:40:30;;;;;;;5.28;2.25;;;;;;;;;;4996651;28;20121;-81
2022/09/29 10:42:57;;;;;;;5.10;1.90;;;;;;;;;;4995973;28;20060;-81
2022/09/29 10:45:25;;;;;;;5.82;2.05;;;;;;;;;;5013680;28;20136;-80
2022/09/29 10:48:00;;;;;;;6.57;2.00;;;;;;;;;;4994930;28;20046;-80
2022/09/29 10:50:31;;;;;;;6.47;2.13;;;;;;;;;;5013082;28;20132;-80
2022/09/29 10:53:04;;;;;;;5.40;1.90;;;;;;;;;;4998012;28;20112;-80
2022/09/29 10:55:46;;;;;;;4.30;1.60;;;;;;;;;;5014820;28;20054;-79
2022/09/29 10:58:29;;;;;;;4.75;1.40;;;;;;;;;;5027327;28;20069;-79
2022/09/29 11:01:17;;;;;;;6.35;1.60;;;;;;;;;;5055016;28;20057;-79
2022/09/29 11:03:48;;;;;;;4.32;1.42;;;;;;;;;;5055976;28;20080;-78
2022/09/29 11:06:18;;;;;;;4.53;1.30;;;;;;;;;;5036549;28;20492;-78
2022/09/29 11:08:57;;;;;;;3.58;1.50;;;;;;;;;;5052532;28;20543;-80
2022/09/29 11:11:26;;;;;;;2.40;1.10;;;;;;;;;;5053026;28;20132;-79
2022/09/29 11:13:54;;;;;;;3.25;1.20;;;;;;;;;;5052935;28;20152;-80
2022/09/29 11:16:32;;;;;;;4.32;1.55;;;;;;;;;;5054127;28;20081;-79
2022/09/29 11:19:10;;;;;;;7.07;1.40;;;;;;;;;;5034799;28;20072;-80
2022/09/29 11:21:40;;;;;;;3.47;1.70;;;;;;;;;;5053145;28;20052;-80
2022/09/29 11:24:22;;;;;;;2.90;1.40;;;;;;;;;;5053167;28;20080;-80
2022/09/29 11:27:03;;;;;;;4.35;1.40;;;;;;;;;;5051756;28;20467;-80
2022/09/29 11:29:31;;;;;;;5.45;1.50;;;;;;;;;;5052345;28;20275;-79
2022/09/29 11:32:09;;;;;;;3.67;1.30;;;;;;;;;;5033884;28;20120;-81
2022/09/29 11:35:15;;;;;;;3.03;1.42;;;;;;;;;;5053232;28;20049;-81
2022/09/29 11:37:41;;;;;;;2.60;1.30;;;;;;;;;;4950843;29;20058;-80
2022/09/29 11:40:19;;;;;;;5.25;1.30;;;;;;;;;;5021720;28;20053;-79
2022/09/29 11:42:49;;;;;;;2.95;1.25;;;;;;;;;;5047615;28;20108;-78
2022/09/29 11:45:17;;;;;;;4.97;1.40;;;;;;;;;;5067209;28;20128;-80
2022/09/29 11:47:58;;;;;;;5.40;1.42;;;;;;;;;;5069229;28;20049;-81
2022/09/29 11:50:27;;;;;;;;;;;;;;;;;;5051113;28;20137;-80
2022/09/29 11:52:56;;;;;;;3.65;1.40;;;;;;;;;;5051328;28;20396;-80
2022/09/29 11:55:32;;;;;;;3.67;1.20;;;;;;;;;;5052345;28;20045;-79
2022/09/29 11:58:01;;;;;;;2.38;1.23;;;;;;;;;;5046423;28;20037;-80
2022/09/29 12:00:47;;;;;;;3.80;1.30;;;;;;;;;;5034335;28;20049;-79
2022/09/29 12:03:20;;;;;;;2.63;1.30;;;;;;;;;;5030121;28;20045;-79
2022/09/29 12:06:14;;;;;;;6.25;1.70;;;;;;;;;;5033440;28;20054;-79
2022/09/29 12:08:44;;;;;;;3.90;1.40;;;;;;;;;;5030756;28;20128;-81
2022/09/29 12:11:30;;;;;;;5.10;1.50;;;;;;;;;;5033949;28;20049;-81
2022/09/29 12:14:24;;;;;;;4.45;1.30;;;;;;;;;;5031921;28;20049;-79
2022/09/29 12:16:53;;;;;;;4.28;1.35;;;;;;;;;;5031649;28;20061;-79
2022/09/29 12:19:22;;;;;;;6.53;1.70;;;;;;;;;;5034167;28;20535;-80
2022/09/29 12:21:51;;;;;;;3.72;1.55;;;;;;;;;;5035295;28;20406;-80
2022/09/29 12:24:19;;;;;;;5.93;1.50;;;;;;;;;;5035319;28;20065;-80
2022/09/29 12:26:47;;;;;;;5.70;1.80;;;;;;;;;;5015898;28;20053;-80
2022/09/29 12:29:20;;;;;;;3.05;1.20;;;;;;;;;;5034817;28;20136;-81
2022/09/29 12:31:48;;;;;;;3.83;1.00;;;;;;;;;;5035377;28;20140;-79
2022/09/29 12:34:18;;;;;;;3.92;1.40;;;;;;;;;;5016260;28;20095;-80
2022/09/29 12:37:02;;;;;;;4.15;1.30;;;;;;;;;;5034736;28;20128;-80
2022/09/29 12:39:37;;;;;;;4.00;1.30;;;;;;;;;;5035066;28;20171;-80
2022/09/29 12:42:15;;;;;;;5.95;1.50;;;;;;;;;;5017764;28;20051;-80
2022/09/29 12:44:47;;;;;;;3.80;1.50;;;;;;;;;;5036709;28;20365;-80
2022/09/29 12:47:34;;;;;;;3.83;1.50;;;;;;;;;;5034640;28;20103;-79
2022/09/29 12:50:04;;;;;;;3.95;1.30;;;;;;;;;;5032250;28;20053;-79
2022/09/29 12:52:41;;;;;;;4.72;1.50;;;;;;;;;;5033789;28;20620;-78
2022/09/29 12:55:14;;;;;;;2.45;1.08;;;;;;;;;;5041530;28;20045;-79
2022/09/29 12:57:44;;;;;;;4.55;1.60;;;;;;;;;;5018138;28;20513;-78
2022/09/29 13:00:12;;;;;;;4.72;1.45;;;;;;;;;;5052256;28;20493;-79
2022/09/29 13:02:44;;;;;;;5.07;1.50;;;;;;;;;;5034916;28;20060;-79
2022/09/29 13:05:33;;;;;;;4.10;1.42;;;;;;;;;;5036234;28;20063;-78
2022/09/29 13:08:18;;;;;;;4.45;1.30;;;;;;;;;;5036419;28;20047;-80
2022/09/29 13:10:47;;;;;;;5.13;2.00;;;;;;;;;;5055335;28;20514;-79
2022/09/29 13:13:16;;;;;;;4.43;1.88;;;;;;;;;;5053895;28;20084;-80
2022/09/29 13:16:00;;;;;;;4.93;1.60;;;;;;;;;;5056958;28;20124;-79
2022/09/29 13:18:37;;;;;;;3.97;1.50;;;;;;;;;;5054421;28;20055;-81
2022/09/29 13:21:31;;;;;;;3.63;1.50;;;;;;;;;;5055691;28;20045;-79
2022/09/29 13:24:16;;;;;;;4.80;1.63;;;;;;;;;;5044768;28;20137;-80
2022/09/29 13:26:48;;;;;;;4.72;1.50;;;;;;;;;;5038411;28;20049;-78
2022/09/29 13:29:20;;;;;;;4.15;1.70;;;;;;;;;;5023660;28;20045;-79
2022/09/29 13:31:47;;;;;;;3.03;1.52;;;;;;;;;;5023238;28;20042;-79
2022/09/29 13:34:19;;;;;;;4.95;1.50;;;;;;;;;;5024892;28;20106;-79
2022/09/29 13:36:50;;;;;;;4.35;1.48;;;;;;;;;;5023859;28;20277;-80
2022/09/29 13:39:19;;;;;;;5.20;1.52;;;;;;;;;;5006452;28;20057;-79
2022/09/29 13:41:46;;;;;;;3.20;1.55;;;;;;;;;;5022167;28;20045;-79
2022/09/29 13:44:15;;;;;;;8.95;3.83;;;;;;;;;;5020663;28;20064;-80
2022/09/29 13:46:43;;;;;;;4.82;1.80;;;;;;;;;;5027279;28;20045;-79
2022/09/29 13:49:12;;;;;;;9.68;1.70;;;;;;;;;;5023912;28;20042;-79
2022/09/29 13:51:41;;;;;;;4.53;1.55;;;;;;;;;;5024252;28;20831;-80
2022/09/29 13:54:23;;;;;;;6.40;1.85;;;;;;;;;;5023276;28;20052;-80
2022/09/29 13:57:02;;;;;;;3.88;1.80;;;;;;;;;;5019418;28;20324;-79
2022/09/29 13:59:29;;;;;;;6.43;1.73;;;;;;;;;;5005250;28;20045;-79
2022/09/29 14:01:57;;;;;;;5.65;1.80;;;;;;;;;;5023796;28;20056;-80
2022/09/29 14:04:44;;;;;;;8.30;1.40;;;;;;;;;;5036170;28;20030;-80
2022/09/29 14:07:33;;;;;;;8.23;1.90;;;;;;;;;;5039886;28;20052;-80
2022/09/29 14:10:04;;;;;;;7.53;1.75;;;;;;;;;;5022205;28;20049;-80
2022/09/29 14:12:33;;;;;;;5.72;2.00;;;;;;;;;;5014418;28;20053;-80
2022/09/29 14:15:00;;;;;;;7.45;1.70;;;;;;;;;;5020779;28;20484;-80
2022/09/29 14:17:38;;;;;;;4.30;1.38;;;;;;;;;;5023606;28;20041;-79
2022/09/29 14:20:07;;;;;;;5.22;1.50;;;;;;;;;;5021995;28;20053;-80
2022/09/29 14:22:36;;;;;;;7.68;1.50;;;;;;;;;;5017984;28;20058;-81
2022/09/29 14:25:14;;;;;;;3.95;1.80;;;;;;;;;;5019928;28;20046;-78
2022/09/29 14:27:58;;;;;;;4.95;1.85;;;;;;;;;;5031699;28;20049;-80
2022/09/29 14:30:27;;;;;;;3.28;1.63;;;;;;;;;;5033648;28;20077;-81
2022/09/29 14:32:54;;;;;;;4.00;1.60;;;;;;;;;;5033506;28;20041;-81
2022/09/29 14:35:28;;;;;;;4.53;1.90;;;;;;;;;;5031841;28;20060;-76
2022/09/29 14:38:08;;;;;;;7.45;2.10;;;;;;;;;;5031931;28;20060;-81
2022/09/29 14:40:34;;;;;;;4.45;2.50;;;;;;;;;;5032013;28;20057;-80
2022/09/29 14:43:02;;;;;;;9.82;2.30;;;;;;;;;;5032275;28;20410;-81
2022/09/29 14:54:06;;;;;;;8.13;2.20;;;;;;;;;;5025252;28;20049;-79
2022/09/29 14:56:50;;;;;;;6.75;1.83;;;;;;;;;;5024300;28;20081;-76
2022/09/29 14:59:34;;;;;;;7.68;2.00;;;;;;;;;;5020979;28;20129;-78
2022/09/29 15:02:23;;;;;;;7.32;2.17;;;;;;;;;;4995040;28;20609;-80
2022/09/29 15:04:50;;;;;;;8.85;1.98;;;;;;;;;;5011435;28;20057;-79
2022/09/29 15:07:21;;;;;;;7.45;1.63;;;;;;;;;;5012060;28;20056;-80
2022/09/29 15:09:50;;;;;;;7.88;1.60;;;;;;;;;;5013360;28;20046;-80
2022/09/29 15:12:35;;;;;;;5.53;1.50;;;;;;;;;;5011446;28;20161;-80
2022/09/29 15:15:02;;;;;;;4.03;1.42;;;;;;;;;;5012276;28;20054;-78
2022/09/29 15:17:31;;;;;;;2.67;1.33;;;;;;;;;;5016983;28;20061;-79
2022/09/29 15:20:27;;;;;;;4.35;1.38;;;;;;;;;;5016430;28;20058;-78
2022/09/29 15:23:09;;;;;;;5.82;1.70;;;;;;;;;;4997318;28;20162;-79